sensor_id;sensor_type;location;lat;lon;timestamp;pressure;altitude;pressure_sealevel;temperature;humidity
62779;BME280;48821;48.796;2.396;2023-01-31T00:01:04;102802.13;;;5.64;65.90
62779;BME280;48821;48.796;2.396;2023-01-31T00:02:16;102793.41;;;5.62;66.09
62779;BME280;48821;48.796;2.396;2023-01-31T00:03:28;102791.63;;;5.61;66.13
62779;BME280;48821;48.796;2.396;2023-01-31T00:04:40;102788.09;;;5.59;66.08
62779;BME280;48821;48.796;2.396;2023-01-31T00:05:51;102782.00;;;5.58;65.91
62779;BME280;48821;48.796;2.396;2023-01-31T00:07:03;102787.22;;;5.58;66.26
62779;BME280;48821;48.796;2.396;2023-01-31T00:08:15;102783.69;;;5.56;66.07
62779;BME280;48821;48.796;2.396;2023-01-31T00:09:27;102787.19;;;5.55;66.17
62779;BME280;48821;48.796;2.396;2023-01-31T00:10:40;102785.41;;;5.54;65.78
62779;BME280;48821;48.796;2.396;2023-01-31T00:11:51;102779.31;;;5.54;65.85
62779;BME280;48821;48.796;2.396;2023-01-31T00:13:03;102781.06;;;5.53;65.91
62779;BME280;48821;48.796;2.396;2023-01-31T00:14:17;102774.06;;;5.52;65.60
62779;BME280;48821;48.796;2.396;2023-01-31T00:15:29;102779.28;;;5.52;65.70
62779;BME280;48821;48.796;2.396;2023-01-31T00:16:41;102780.13;;;5.51;66.10
62779;BME280;48821;48.796;2.396;2023-01-31T00:17:54;102785.31;;;5.49;65.88
62779;BME280;48821;48.796;2.396;2023-01-31T00:19:05;102786.16;;;5.48;66.20
62779;BME280;48821;48.796;2.396;2023-01-31T00:20:17;102796.56;;;5.47;65.99
62779;BME280;48821;48.796;2.396;2023-01-31T00:21:30;102783.50;;;5.47;65.87
62779;BME280;48821;48.796;2.396;2023-01-31T00:22:41;102782.63;;;5.46;65.82
62779;BME280;48821;48.796;2.396;2023-01-31T00:23:53;102774.78;;;5.45;65.91
62779;BME280;48821;48.796;2.396;2023-01-31T00:25:05;102774.78;;;5.45;66.12
62779;BME280;48821;48.796;2.396;2023-01-31T00:26:29;102772.16;;;5.45;65.91
62779;BME280;48821;48.796;2.396;2023-01-31T00:27:40;102770.41;;;5.44;65.76
62779;BME280;48821;48.796;2.396;2023-01-31T00:28:53;102776.47;;;5.43;66.00
62779;BME280;48821;48.796;2.396;2023-01-31T00:30:06;102771.22;;;5.41;65.99
62779;BME280;48821;48.796;2.396;2023-01-31T00:31:18;102772.97;;;5.40;66.03
62779;BME280;48821;48.796;2.396;2023-01-31T00:32:29;102780.72;;;5.39;66.33
62779;BME280;48821;48.796;2.396;2023-01-31T00:33:42;102771.16;;;5.38;66.02
62779;BME280;48821;48.796;2.396;2023-01-31T00:34:53;102765.91;;;5.36;66.00
62779;BME280;48821;48.796;2.396;2023-01-31T00:36:08;102768.47;;;5.35;65.88
62779;BME280;48821;48.796;2.396;2023-01-31T00:37:20;102775.41;;;5.34;65.85
62779;BME280;48821;48.796;2.396;2023-01-31T00:38:32;102771.94;;;5.34;66.11
62779;BME280;48821;48.796;2.396;2023-01-31T00:39:44;102764.06;;;5.32;66.08
62779;BME280;48821;48.796;2.396;2023-01-31T00:40:56;102773.59;;;5.30;65.36
62779;BME280;48821;48.796;2.396;2023-01-31T00:42:07;102773.53;;;5.28;65.67
62779;BME280;48821;48.796;2.396;2023-01-31T00:43:20;102774.41;;;5.27;65.98
62779;BME280;48821;48.796;2.396;2023-01-31T00:44:31;102771.78;;;5.26;65.83
62779;BME280;48821;48.796;2.396;2023-01-31T00:45:43;102772.63;;;5.25;65.80
62779;BME280;48821;48.796;2.396;2023-01-31T00:46:55;102782.16;;;5.24;65.98
62779;BME280;48821;48.796;2.396;2023-01-31T00:48:07;102775.19;;;5.23;65.69
62779;BME280;48821;48.796;2.396;2023-01-31T00:49:19;102783.81;;;5.21;65.86
62779;BME280;48821;48.796;2.396;2023-01-31T00:50:31;102774.22;;;5.18;65.53
62779;BME280;48821;48.796;2.396;2023-01-31T00:51:44;102768.94;;;5.16;65.90
62779;BME280;48821;48.796;2.396;2023-01-31T00:52:56;102775.03;;;5.17;65.62
62779;BME280;48821;48.796;2.396;2023-01-31T00:54:08;102772.34;;;5.14;65.99
62779;BME280;48821;48.796;2.396;2023-01-31T00:55:20;102767.13;;;5.12;65.88
62779;BME280;48821;48.796;2.396;2023-01-31T00:56:31;102767.09;;;5.11;66.21
62779;BME280;48821;48.796;2.396;2023-01-31T00:57:43;102771.41;;;5.09;66.03
62779;BME280;48821;48.796;2.396;2023-01-31T00:58:54;102774.00;;;5.09;66.27
62779;BME280;48821;48.796;2.396;2023-01-31T01:00:07;102779.16;;;5.07;66.04
62779;BME280;48821;48.796;2.396;2023-01-31T01:01:21;102779.13;;;5.05;65.96
62779;BME280;48821;48.796;2.396;2023-01-31T01:02:33;102771.25;;;5.04;65.88
62779;BME280;48821;48.796;2.396;2023-01-31T01:03:45;102775.63;;;5.03;65.98
62779;BME280;48821;48.796;2.396;2023-01-31T01:04:57;102768.63;;;5.02;66.12
62779;BME280;48821;48.796;2.396;2023-01-31T01:06:11;102772.06;;;5.01;66.11
62779;BME280;48821;48.796;2.396;2023-01-31T01:07:21;102759.91;;;5.00;65.77
62779;BME280;48821;48.796;2.396;2023-01-31T01:08:34;102766.84;;;5.00;65.99
62779;BME280;48821;48.796;2.396;2023-01-31T01:09:45;102761.59;;;4.98;66.23
62779;BME280;48821;48.796;2.396;2023-01-31T01:11:04;102754.66;;;4.99;65.96
62779;BME280;48821;48.796;2.396;2023-01-31T01:12:15;102747.69;;;4.98;66.30
62779;BME280;48821;48.796;2.396;2023-01-31T01:13:27;102747.69;;;4.98;66.01
62779;BME280;48821;48.796;2.396;2023-01-31T01:14:39;102745.91;;;4.97;66.19
62779;BME280;48821;48.796;2.396;2023-01-31T01:15:51;102743.28;;;4.95;66.70
62779;BME280;48821;48.796;2.396;2023-01-31T01:17:03;102735.44;;;4.93;66.28
62779;BME280;48821;48.796;2.396;2023-01-31T01:18:14;102742.38;;;4.94;66.40
62779;BME280;48821;48.796;2.396;2023-01-31T01:19:26;102738.88;;;4.92;66.04
62779;BME280;48821;48.796;2.396;2023-01-31T01:20:38;102739.72;;;4.91;66.22
62779;BME280;48821;48.796;2.396;2023-01-31T01:21:53;102742.34;;;4.91;66.37
62779;BME280;48821;48.796;2.396;2023-01-31T01:23:05;102743.16;;;4.90;66.14
62779;BME280;48821;48.796;2.396;2023-01-31T01:24:18;102737.94;;;4.90;66.54
62779;BME280;48821;48.796;2.396;2023-01-31T01:25:29;102735.34;;;4.90;66.33
62779;BME280;48821;48.796;2.396;2023-01-31T01:26:41;102748.34;;;4.89;66.19
62779;BME280;48821;48.796;2.396;2023-01-31T01:27:53;102743.16;;;4.89;66.13
62779;BME280;48821;48.796;2.396;2023-01-31T01:29:05;102740.47;;;4.87;66.27
62779;BME280;48821;48.796;2.396;2023-01-31T01:30:17;102745.69;;;4.87;66.53
62779;BME280;48821;48.796;2.396;2023-01-31T01:31:29;102748.31;;;4.87;66.54
62779;BME280;48821;48.796;2.396;2023-01-31T01:32:41;102754.38;;;4.86;66.13
62779;BME280;48821;48.796;2.396;2023-01-31T01:33:53;102753.50;;;4.86;66.29
62779;BME280;48821;48.796;2.396;2023-01-31T01:35:04;102759.59;;;4.86;66.16
62779;BME280;48821;48.796;2.396;2023-01-31T01:36:17;102758.69;;;4.86;66.26
62779;BME280;48821;48.796;2.396;2023-01-31T01:37:32;102757.81;;;4.85;66.26
62779;BME280;48821;48.796;2.396;2023-01-31T01:38:44;102759.53;;;4.84;66.20
62779;BME280;48821;48.796;2.396;2023-01-31T01:39:56;102757.81;;;4.85;66.45
62779;BME280;48821;48.796;2.396;2023-01-31T01:41:08;102760.41;;;4.85;66.51
62779;BME280;48821;48.796;2.396;2023-01-31T01:42:24;102762.19;;;4.86;66.41
62779;BME280;48821;48.796;2.396;2023-01-31T01:43:51;102759.59;;;4.86;66.84
62779;BME280;48821;48.796;2.396;2023-01-31T01:45:11;102763.91;;;4.86;66.32
62779;BME280;48821;48.796;2.396;2023-01-31T01:49:10;102771.75;;;4.87;65.99
62779;BME280;48821;48.796;2.396;2023-01-31T01:50:29;102768.25;;;4.87;66.45
62779;BME280;48821;48.796;2.396;2023-01-31T01:51:44;102762.19;;;4.86;66.54
62779;BME280;48821;48.796;2.396;2023-01-31T01:53:09;102764.78;;;4.86;66.56
62779;BME280;48821;48.796;2.396;2023-01-31T01:54:33;102759.59;;;4.86;66.49
62779;BME280;48821;48.796;2.396;2023-01-31T01:55:54;102757.81;;;4.85;66.33
62779;BME280;48821;48.796;2.396;2023-01-31T01:57:10;102752.59;;;4.85;66.41
62779;BME280;48821;48.796;2.396;2023-01-31T01:58:38;102762.13;;;4.84;66.47
62779;BME280;48821;48.796;2.396;2023-01-31T02:00:02;102760.41;;;4.85;66.74
62779;BME280;48821;48.796;2.396;2023-01-31T02:01:14;102754.28;;;4.83;66.94
62779;BME280;48821;48.796;2.396;2023-01-31T02:02:28;102752.56;;;4.83;66.60
62779;BME280;48821;48.796;2.396;2023-01-31T02:03:40;102753.41;;;4.82;66.98
62779;BME280;48821;48.796;2.396;2023-01-31T02:04:51;102757.72;;;4.82;66.59
62779;BME280;48821;48.796;2.396;2023-01-31T02:06:05;102756.88;;;4.81;66.63
62779;BME280;48821;48.796;2.396;2023-01-31T02:07:16;102756.00;;;4.82;66.76
62779;BME280;48821;48.796;2.396;2023-01-31T02:08:31;102747.31;;;4.82;66.95
62779;BME280;48821;48.796;2.396;2023-01-31T02:09:57;102755.13;;;4.82;66.87
62779;BME280;48821;48.796;2.396;2023-01-31T02:11:29;102750.78;;;4.81;67.03
62779;BME280;48821;48.796;2.396;2023-01-31T02:12:40;102750.78;;;4.81;66.86
62779;BME280;48821;48.796;2.396;2023-01-31T02:13:58;102749.88;;;4.79;67.12
62779;BME280;48821;48.796;2.396;2023-01-31T02:15:10;102754.22;;;4.80;67.07
62779;BME280;48821;48.796;2.396;2023-01-31T02:16:21;102747.25;;;4.79;66.85
62779;BME280;48821;48.796;2.396;2023-01-31T02:17:32;102750.69;;;4.78;66.98
62779;BME280;48821;48.796;2.396;2023-01-31T02:18:44;102755.91;;;4.78;66.62
62779;BME280;48821;48.796;2.396;2023-01-31T02:20:06;102748.97;;;4.78;66.80
62779;BME280;48821;48.796;2.396;2023-01-31T02:28:08;102741.88;;;4.72;66.43
62779;BME280;48821;48.796;2.396;2023-01-31T02:29:33;102740.97;;;4.70;66.80
62779;BME280;48821;48.796;2.396;2023-01-31T02:39:02;102746.88;;;4.63;66.79
62779;BME280;48821;48.796;2.396;2023-01-31T02:41:55;102750.28;;;4.60;66.64
62779;BME280;48821;48.796;2.396;2023-01-31T02:43:17;102751.09;;;4.58;66.38
62779;BME280;48821;48.796;2.396;2023-01-31T02:44:53;102751.09;;;4.58;66.78
62779;BME280;48821;48.796;2.396;2023-01-31T02:46:14;102750.16;;;4.56;66.61
62779;BME280;48821;48.796;2.396;2023-01-31T02:50:18;102762.31;;;4.55;66.67
62779;BME280;48821;48.796;2.396;2023-01-31T02:51:13;102755.28;;;4.53;66.39
62779;BME280;48821;48.796;2.396;2023-01-31T02:52:48;102757.00;;;4.52;66.52
62779;BME280;48821;48.796;2.396;2023-01-31T02:54:10;102761.31;;;4.50;66.75
62779;BME280;48821;48.796;2.396;2023-01-31T02:55:29;102758.69;;;4.50;66.59
62779;BME280;48821;48.796;2.396;2023-01-31T02:57:01;102762.16;;;4.49;66.80
62779;BME280;48821;48.796;2.396;2023-01-31T02:58:13;102758.66;;;4.48;66.66
62779;BME280;48821;48.796;2.396;2023-01-31T02:59:28;102750.84;;;4.47;66.42
62779;BME280;48821;48.796;2.396;2023-01-31T03:00:43;102748.22;;;4.47;66.72
62779;BME280;48821;48.796;2.396;2023-01-31T03:01:59;102745.63;;;4.47;66.88
62779;BME280;48821;48.796;2.396;2023-01-31T03:03:18;102749.06;;;4.46;66.55
62779;BME280;48821;48.796;2.396;2023-01-31T03:04:33;102750.78;;;4.45;66.69
62779;BME280;48821;48.796;2.396;2023-01-31T03:07:36;102750.75;;;4.44;66.29
62779;BME280;48821;48.796;2.396;2023-01-31T03:09:03;102745.44;;;4.41;66.44
62779;BME280;48821;48.796;2.396;2023-01-31T03:16:25;102737.50;;;4.34;66.51
62779;BME280;48821;48.796;2.396;2023-01-31T03:18:19;102740.03;;;4.33;66.58
62779;BME280;48821;48.796;2.396;2023-01-31T03:19:37;102751.31;;;4.32;66.68
62779;BME280;48821;48.796;2.396;2023-01-31T03:20:58;102755.63;;;4.31;66.54
62779;BME280;48821;48.796;2.396;2023-01-31T03:22:14;102751.22;;;4.28;66.39
62779;BME280;48821;48.796;2.396;2023-01-31T03:23:30;102749.44;;;4.27;66.61
62779;BME280;48821;48.796;2.396;2023-01-31T03:24:44;102747.75;;;4.28;66.39
62779;BME280;48821;48.796;2.396;2023-01-31T03:25:58;102744.25;;;4.27;66.29
62779;BME280;48821;48.796;2.396;2023-01-31T03:27:12;102746.81;;;4.26;66.62
62779;BME280;48821;48.796;2.396;2023-01-31T03:28:27;102756.34;;;4.25;66.76
62779;BME280;48821;48.796;2.396;2023-01-31T03:29:39;102756.34;;;4.25;66.32
62779;BME280;48821;48.796;2.396;2023-01-31T03:30:59;102752.81;;;4.23;66.22
62779;BME280;48821;48.796;2.396;2023-01-31T03:32:18;102760.63;;;4.23;66.92
62779;BME280;48821;48.796;2.396;2023-01-31T03:33:35;102754.53;;;4.23;66.57
62779;BME280;48821;48.796;2.396;2023-01-31T03:34:50;102753.66;;;4.22;66.05
62779;BME280;48821;48.796;2.396;2023-01-31T03:36:23;102764.94;;;4.21;66.70
62779;BME280;48821;48.796;2.396;2023-01-31T03:37:43;102756.19;;;4.19;66.50
62779;BME280;48821;48.796;2.396;2023-01-31T03:39:45;102761.41;;;4.19;66.30
62779;BME280;48821;48.796;2.396;2023-01-31T03:44:04;102757.00;;;4.16;66.71
62779;BME280;48821;48.796;2.396;2023-01-31T03:45:31;102762.16;;;4.15;66.75
62779;BME280;48821;48.796;2.396;2023-01-31T03:46:52;102752.59;;;4.14;66.72
62779;BME280;48821;48.796;2.396;2023-01-31T03:48:07;102763.00;;;4.14;66.39
62779;BME280;48821;48.796;2.396;2023-01-31T03:49:26;102754.28;;;4.12;66.56
62779;BME280;48821;48.796;2.396;2023-01-31T03:50:42;102759.47;;;4.12;66.42
62779;BME280;48821;48.796;2.396;2023-01-31T03:51:59;102762.09;;;4.12;66.76
62779;BME280;48821;48.796;2.396;2023-01-31T03:53:38;102761.16;;;4.10;66.69
62779;BME280;48821;48.796;2.396;2023-01-31T03:54:57;102769.00;;;4.11;66.31
62779;BME280;48821;48.796;2.396;2023-01-31T03:57:32;102763.78;;;4.10;66.70
62779;BME280;48821;48.796;2.396;2023-01-31T03:58:47;102764.69;;;4.12;66.68
62779;BME280;48821;48.796;2.396;2023-01-31T04:00:05;102760.38;;;4.12;66.78
62779;BME280;48821;48.796;2.396;2023-01-31T04:01:22;102757.75;;;4.12;67.27
62779;BME280;48821;48.796;2.396;2023-01-31T04:02:36;102752.56;;;4.12;67.05
62779;BME280;48821;48.796;2.396;2023-01-31T04:03:57;102749.97;;;4.12;67.04
62779;BME280;48821;48.796;2.396;2023-01-31T04:05:17;102755.19;;;4.14;67.28
62779;BME280;48821;48.796;2.396;2023-01-31T04:06:30;102756.91;;;4.13;67.39
62779;BME280;48821;48.796;2.396;2023-01-31T04:07:40;102756.09;;;4.16;67.59
62779;BME280;48821;48.796;2.396;2023-01-31T04:08:51;102754.41;;;4.16;67.78
62779;BME280;48821;48.796;2.396;2023-01-31T04:10:08;102759.63;;;4.18;67.79
62779;BME280;48821;48.796;2.396;2023-01-31T04:11:24;102755.31;;;4.19;67.52
62779;BME280;48821;48.796;2.396;2023-01-31T04:12:35;102767.53;;;4.21;67.89
62779;BME280;48821;48.796;2.396;2023-01-31T04:13:50;102761.44;;;4.21;68.45
62779;BME280;48821;48.796;2.396;2023-01-31T04:15:05;102771.06;;;4.25;68.11
62779;BME280;48821;48.796;2.396;2023-01-31T04:16:16;102772.03;;;4.27;67.96
62779;BME280;48821;48.796;2.396;2023-01-31T04:17:27;102766.84;;;4.28;68.15
62779;BME280;48821;48.796;2.396;2023-01-31T04:18:40;102760.81;;;4.30;68.08
62779;BME280;48821;48.796;2.396;2023-01-31T04:19:50;102760.84;;;4.31;68.07
62779;BME280;48821;48.796;2.396;2023-01-31T04:21:01;102753.94;;;4.33;68.15
62779;BME280;48821;48.796;2.396;2023-01-31T04:22:13;102764.41;;;4.35;67.79
62779;BME280;48821;48.796;2.396;2023-01-31T04:23:27;102759.25;;;4.36;67.61
62779;BME280;48821;48.796;2.396;2023-01-31T04:24:38;102756.66;;;4.38;68.02
62779;BME280;48821;48.796;2.396;2023-01-31T04:25:54;102759.28;;;4.38;68.17
62779;BME280;48821;48.796;2.396;2023-01-31T04:27:04;102762.78;;;4.40;68.02
62779;BME280;48821;48.796;2.396;2023-01-31T04:28:16;102761.97;;;4.41;67.68
62779;BME280;48821;48.796;2.396;2023-01-31T04:29:27;102764.59;;;4.43;68.01
62779;BME280;48821;48.796;2.396;2023-01-31T04:30:38;102762.91;;;4.45;68.19
62779;BME280;48821;48.796;2.396;2023-01-31T04:31:50;102762.91;;;4.45;67.80
62779;BME280;48821;48.796;2.396;2023-01-31T04:33:00;102759.47;;;4.46;68.43
62779;BME280;48821;48.796;2.396;2023-01-31T04:34:12;102758.59;;;4.45;67.98
62779;BME280;48821;48.796;2.396;2023-01-31T04:35:23;102762.09;;;4.47;68.06
62779;BME280;48821;48.796;2.396;2023-01-31T04:36:34;102763.00;;;4.48;68.10
62779;BME280;48821;48.796;2.396;2023-01-31T04:37:45;102762.16;;;4.49;67.95
62779;BME280;48821;48.796;2.396;2023-01-31T04:38:56;102763.03;;;4.49;68.14
62779;BME280;48821;48.796;2.396;2023-01-31T04:40:09;102768.28;;;4.51;68.24
62779;BME280;48821;48.796;2.396;2023-01-31T04:41:23;102763.97;;;4.52;68.04
62779;BME280;48821;48.796;2.396;2023-01-31T04:42:34;102760.50;;;4.53;67.94
62779;BME280;48821;48.796;2.396;2023-01-31T04:43:45;102757.91;;;4.53;68.29
62779;BME280;48821;48.796;2.396;2023-01-31T04:44:56;102766.59;;;4.53;68.49
62779;BME280;48821;48.796;2.396;2023-01-31T04:46:06;102760.56;;;4.54;68.27
62779;BME280;48821;48.796;2.396;2023-01-31T04:47:18;102765.81;;;4.56;67.90
62779;BME280;48821;48.796;2.396;2023-01-31T04:48:29;102765.81;;;4.56;68.22
62779;BME280;48821;48.796;2.396;2023-01-31T04:49:41;102773.63;;;4.56;68.50
62779;BME280;48821;48.796;2.396;2023-01-31T04:50:53;102780.53;;;4.55;67.90
62779;BME280;48821;48.796;2.396;2023-01-31T04:52:04;102784.06;;;4.57;68.03
62779;BME280;48821;48.796;2.396;2023-01-31T04:53:15;102773.63;;;4.57;68.46
62779;BME280;48821;48.796;2.396;2023-01-31T04:54:26;102766.75;;;4.59;68.44
62779;BME280;48821;48.796;2.396;2023-01-31T04:55:36;102758.97;;;4.61;68.30
62779;BME280;48821;48.796;2.396;2023-01-31T04:56:47;102753.78;;;4.61;67.83
62779;BME280;48821;48.796;2.396;2023-01-31T04:57:58;102755.53;;;4.62;68.11
62779;BME280;48821;48.796;2.396;2023-01-31T04:59:10;102757.28;;;4.63;68.18
62779;BME280;48821;48.796;2.396;2023-01-31T05:00:21;102752.97;;;4.64;68.08
62779;BME280;48821;48.796;2.396;2023-01-31T05:01:32;102754.69;;;4.63;67.91
62779;BME280;48821;48.796;2.396;2023-01-31T05:02:43;102754.69;;;4.63;68.22
62779;BME280;48821;48.796;2.396;2023-01-31T05:03:54;102757.31;;;4.65;68.46
62779;BME280;48821;48.796;2.396;2023-01-31T05:05:05;102753.00;;;4.65;68.36
62779;BME280;48821;48.796;2.396;2023-01-31T05:06:16;102754.72;;;4.65;68.20
62779;BME280;48821;48.796;2.396;2023-01-31T05:07:27;102754.72;;;4.65;68.50
62779;BME280;48821;48.796;2.396;2023-01-31T05:08:38;102755.56;;;4.64;67.86
62779;BME280;48821;48.796;2.396;2023-01-31T05:09:49;102759.00;;;4.63;68.35
62779;BME280;48821;48.796;2.396;2023-01-31T05:11:03;102758.19;;;4.64;68.31
62779;BME280;48821;48.796;2.396;2023-01-31T05:12:15;102750.38;;;4.65;68.53
62779;BME280;48821;48.796;2.396;2023-01-31T05:13:26;102748.69;;;4.66;68.46
62779;BME280;48821;48.796;2.396;2023-01-31T05:14:39;102745.19;;;4.65;68.28
62779;BME280;48821;48.796;2.396;2023-01-31T05:15:50;102742.59;;;4.67;68.32
62779;BME280;48821;48.796;2.396;2023-01-31T05:17:01;102744.38;;;4.68;68.36
62779;BME280;48821;48.796;2.396;2023-01-31T05:18:12;102742.66;;;4.68;67.92
62779;BME280;48821;48.796;2.396;2023-01-31T05:19:23;102739.19;;;4.69;68.01
62779;BME280;48821;48.796;2.396;2023-01-31T05:20:36;102739.16;;;4.66;68.00
62779;BME280;48821;48.796;2.396;2023-01-31T05:21:49;102742.59;;;4.67;68.07
62779;BME280;48821;48.796;2.396;2023-01-31T05:23:11;102745.25;;;4.68;68.20
62779;BME280;48821;48.796;2.396;2023-01-31T05:24:22;102734.78;;;4.67;67.88
62779;BME280;48821;48.796;2.396;2023-01-31T05:25:36;102733.06;;;4.67;68.31
62779;BME280;48821;48.796;2.396;2023-01-31T05:26:46;102733.97;;;4.68;67.72
62779;BME280;48821;48.796;2.396;2023-01-31T05:27:58;102731.31;;;4.66;67.82
62779;BME280;48821;48.796;2.396;2023-01-31T05:29:09;102735.69;;;4.67;68.05
62779;BME280;48821;48.796;2.396;2023-01-31T05:30:20;102731.31;;;4.66;67.62
62779;BME280;48821;48.796;2.396;2023-01-31T05:31:33;102735.66;;;4.66;67.64
62779;BME280;48821;48.796;2.396;2023-01-31T05:32:45;102740.88;;;4.66;67.62
62779;BME280;48821;48.796;2.396;2023-01-31T05:33:56;102748.66;;;4.64;67.34
62779;BME280;48821;48.796;2.396;2023-01-31T05:35:07;102746.03;;;4.64;67.61
62779;BME280;48821;48.796;2.396;2023-01-31T05:36:18;102740.78;;;4.63;67.49
62779;BME280;48821;48.796;2.396;2023-01-31T05:37:29;102741.66;;;4.63;67.63
62779;BME280;48821;48.796;2.396;2023-01-31T05:38:40;102739.03;;;4.61;67.69
62779;BME280;48821;48.796;2.396;2023-01-31T05:39:52;102738.16;;;4.61;67.79
62779;BME280;48821;48.796;2.396;2023-01-31T05:41:03;102750.28;;;4.60;67.56
62779;BME280;48821;48.796;2.396;2023-01-31T05:42:14;102745.03;;;4.59;67.17
62779;BME280;48821;48.796;2.396;2023-01-31T05:43:25;102745.88;;;4.58;67.68
62779;BME280;48821;48.796;2.396;2023-01-31T05:44:36;102748.47;;;4.58;67.75
62779;BME280;48821;48.796;2.396;2023-01-31T05:45:47;102744.97;;;4.56;67.80
62779;BME280;48821;48.796;2.396;2023-01-31T05:46:58;102751.00;;;4.55;67.75
62779;BME280;48821;48.796;2.396;2023-01-31T05:48:10;102751.88;;;4.54;67.35
62779;BME280;48821;48.796;2.396;2023-01-31T05:49:21;102752.69;;;4.53;67.72
62779;BME280;48821;48.796;2.396;2023-01-31T05:50:32;102759.69;;;4.54;67.46
62779;BME280;48821;48.796;2.396;2023-01-31T05:51:43;102754.47;;;4.54;68.33
62779;BME280;48821;48.796;2.396;2023-01-31T05:52:56;102758.78;;;4.53;67.57
62779;BME280;48821;48.796;2.396;2023-01-31T05:54:10;102762.28;;;4.54;68.07
62779;BME280;48821;48.796;2.396;2023-01-31T05:55:23;102769.22;;;4.55;68.16
62779;BME280;48821;48.796;2.396;2023-01-31T05:56:34;102761.41;;;4.55;67.96
62779;BME280;48821;48.796;2.396;2023-01-31T05:57:45;102768.41;;;4.56;68.45
62779;BME280;48821;48.796;2.396;2023-01-31T05:58:56;102764.09;;;4.58;67.66
62779;BME280;48821;48.796;2.396;2023-01-31T06:00:07;102761.50;;;4.58;68.16
62779;BME280;48821;48.796;2.396;2023-01-31T06:01:20;102766.75;;;4.59;68.48
62779;BME280;48821;48.796;2.396;2023-01-31T06:02:34;102755.50;;;4.60;68.40
62779;BME280;48821;48.796;2.396;2023-01-31T06:03:45;102755.50;;;4.60;68.26
62779;BME280;48821;48.796;2.396;2023-01-31T06:04:56;102754.66;;;4.61;68.50
62779;BME280;48821;48.796;2.396;2023-01-31T06:06:07;102746.88;;;4.63;68.29
62779;BME280;48821;48.796;2.396;2023-01-31T06:07:18;102761.63;;;4.63;68.50
62779;BME280;48821;48.796;2.396;2023-01-31T06:08:29;102759.06;;;4.64;68.46
62779;BME280;48821;48.796;2.396;2023-01-31T06:09:40;102755.59;;;4.65;68.62
62779;BME280;48821;48.796;2.396;2023-01-31T06:10:51;102755.59;;;4.65;68.51
62779;BME280;48821;48.796;2.396;2023-01-31T06:12:03;102757.38;;;4.66;68.55
62779;BME280;48821;48.796;2.396;2023-01-31T06:13:14;102751.31;;;4.67;68.28
62779;BME280;48821;48.796;2.396;2023-01-31T06:14:25;102760.03;;;4.69;68.59
62779;BME280;48821;48.796;2.396;2023-01-31T06:15:42;102761.78;;;4.69;68.45
62779;BME280;48821;48.796;2.396;2023-01-31T06:16:52;102754.88;;;4.71;68.78
62779;BME280;48821;48.796;2.396;2023-01-31T06:18:03;102752.31;;;4.72;68.74
62779;BME280;48821;48.796;2.396;2023-01-31T06:19:14;102754.97;;;4.74;68.63
62779;BME280;48821;48.796;2.396;2023-01-31T06:20:25;102757.59;;;4.76;68.82
62779;BME280;48821;48.796;2.396;2023-01-31T06:21:36;102750.69;;;4.78;69.03
62779;BME280;48821;48.796;2.396;2023-01-31T06:22:47;102750.78;;;4.81;68.97
62779;BME280;48821;48.796;2.396;2023-01-31T06:23:58;102753.41;;;4.82;69.04
62779;BME280;48821;48.796;2.396;2023-01-31T06:25:09;102745.59;;;4.82;69.00
62779;BME280;48821;48.796;2.396;2023-01-31T06:26:22;102747.38;;;4.85;68.89
62779;BME280;48821;48.796;2.396;2023-01-31T06:27:33;102753.50;;;4.87;68.99
62779;BME280;48821;48.796;2.396;2023-01-31T06:28:44;102743.16;;;4.89;69.00
62779;BME280;48821;48.796;2.396;2023-01-31T06:29:55;102744.88;;;4.90;68.94
62779;BME280;48821;48.796;2.396;2023-01-31T06:31:07;102745.78;;;4.90;68.95
62779;BME280;48821;48.796;2.396;2023-01-31T06:32:18;102752.75;;;4.91;68.96
62779;BME280;48821;48.796;2.396;2023-01-31T06:33:29;102759.75;;;4.94;69.10
62779;BME280;48821;48.796;2.396;2023-01-31T06:34:40;102767.63;;;4.95;68.70
62779;BME280;48821;48.796;2.396;2023-01-31T06:35:51;102772.81;;;4.95;68.94
62779;BME280;48821;48.796;2.396;2023-01-31T06:37:02;102778.06;;;4.97;68.98
62779;BME280;48821;48.796;2.396;2023-01-31T06:38:14;102778.94;;;4.98;69.06
62779;BME280;48821;48.796;2.396;2023-01-31T06:39:26;102783.34;;;4.99;69.40
62779;BME280;48821;48.796;2.396;2023-01-31T06:40:38;102778.13;;;4.99;68.80
62779;BME280;48821;48.796;2.396;2023-01-31T06:41:50;102777.34;;;5.03;69.01
62779;BME280;48821;48.796;2.396;2023-01-31T06:43:02;102773.00;;;5.03;69.15
62779;BME280;48821;48.796;2.396;2023-01-31T06:44:14;102777.41;;;5.06;69.21
62779;BME280;48821;48.796;2.396;2023-01-31T06:45:26;102779.16;;;5.07;69.11
62779;BME280;48821;48.796;2.396;2023-01-31T06:46:38;102780.94;;;5.08;68.73
62779;BME280;48821;48.796;2.396;2023-01-31T06:47:50;102788.78;;;5.10;68.83
62779;BME280;48821;48.796;2.396;2023-01-31T06:49:02;102789.75;;;5.13;68.94
62779;BME280;48821;48.796;2.396;2023-01-31T06:50:14;102785.38;;;5.12;69.07
62779;BME280;48821;48.796;2.396;2023-01-31T06:51:26;102795.00;;;5.16;68.93
62779;BME280;48821;48.796;2.396;2023-01-31T06:52:39;102794.19;;;5.17;69.07
62779;BME280;48821;48.796;2.396;2023-01-31T06:53:51;102786.34;;;5.17;68.94
62779;BME280;48821;48.796;2.396;2023-01-31T06:55:03;102785.50;;;5.18;68.94
62779;BME280;48821;48.796;2.396;2023-01-31T06:56:15;102783.78;;;5.19;68.78
62779;BME280;48821;48.796;2.396;2023-01-31T06:57:27;102787.28;;;5.21;69.15
62779;BME280;48821;48.796;2.396;2023-01-31T06:58:39;102791.69;;;5.22;68.72
62779;BME280;48821;48.796;2.396;2023-01-31T06:59:50;102789.06;;;5.22;69.12
62779;BME280;48821;48.796;2.396;2023-01-31T07:01:12;102783.88;;;5.24;68.92
62779;BME280;48821;48.796;2.396;2023-01-31T07:02:24;102787.38;;;5.24;69.27
62779;BME280;48821;48.796;2.396;2023-01-31T07:03:36;102790.88;;;5.26;68.88
62779;BME280;48821;48.796;2.396;2023-01-31T07:04:48;102788.28;;;5.26;69.18
62779;BME280;48821;48.796;2.396;2023-01-31T07:05:58;102790.06;;;5.27;68.94